createdAt,value
2022-07-28T00:04:43.862Z,95886.78
2022-07-28T00:09:45.619Z,95880.47
2022-07-28T00:14:47.411Z,95875.34
2022-07-28T00:19:49.311Z,95873.81
2022-07-28T00:24:51.016Z,95884.94
2022-07-28T00:29:52.666Z,95883.69
2022-07-28T00:34:54.317Z,95876.59
2022-07-28T00:39:56.120Z,95871.03
2022-07-28T00:44:57.775Z,95869.50
2022-07-28T00:49:59.545Z,95867.94
2022-07-28T00:55:04.485Z,95866.09
2022-07-28T01:00:06.877Z,95863.00
2022-07-28T01:05:09.489Z,95861.13
2022-07-28T01:10:24.448Z,95858.53
2022-07-28T01:15:33.511Z,95852.31
2022-07-28T01:20:49.242Z,95851.69
2022-07-28T01:26:28.534Z,95849.50
2022-07-28T01:31:40.993Z,95850.88
2022-07-28T01:36:51.364Z,95843.94
2022-07-28T01:41:56.148Z,95842.84
2022-07-28T01:47:00.566Z,95834.66
2022-07-28T01:52:06.679Z,95841.88
2022-07-28T01:57:14.476Z,95825.34
2022-07-28T02:02:18.842Z,95829.06
2022-07-28T02:07:21.218Z,95816.53
2022-07-28T02:12:24.327Z,95812.69
2022-07-28T02:17:30.918Z,95820.84
2022-07-28T02:22:33.743Z,95815.56
2022-07-28T02:27:47.324Z,95815.81
2022-07-28T02:32:53.877Z,95801.78
2022-07-28T02:38:07.557Z,95808.38
2022-07-28T02:43:15.717Z,95795.53
2022-07-28T02:48:21.449Z,95812.75
2022-07-28T02:53:24.605Z,95805.50
2022-07-28T02:58:28.051Z,95817.97
2022-07-28T03:03:30.947Z,95814.53
2022-07-28T03:08:32.739Z,95824.53
2022-07-28T03:13:34.563Z,95831.75
2022-07-28T03:18:36.255Z,95829.91
2022-07-28T03:23:45.434Z,95830.00
2022-07-28T03:28:48.885Z,95836.78
2022-07-28T03:33:50.686Z,95834.91
2022-07-28T03:39:00.716Z,95826.72
2022-07-28T03:44:03.067Z,95820.53
2022-07-28T03:49:08.477Z,95821.53
2022-07-28T03:54:10.501Z,95825.69
2022-07-28T03:59:12.360Z,95825.03
2022-07-28T04:04:14.253Z,95821.94
2022-07-28T04:09:16.344Z,95815.28
2022-07-28T04:14:18.625Z,95820.06
2022-07-28T04:19:20.582Z,95820.50
2022-07-28T04:24:22.371Z,95818.97
2022-07-28T04:29:27.447Z,95820.22
2022-07-28T04:34:29.369Z,95814.34
2022-07-28T04:39:31.557Z,95821.09
2022-07-28T04:44:33.715Z,95828.19
2022-07-28T04:49:35.565Z,95822.19
2022-07-28T04:54:38.259Z,95822.06
2022-07-28T04:59:40.113Z,95829.03
2022-07-28T05:04:41.804Z,95817.50
2022-07-28T05:09:43.826Z,95830.44
2022-07-28T05:14:45.383Z,95837.88
2022-07-28T05:19:47.040Z,95841.75
2022-07-28T05:24:48.619Z,95834.38
2022-07-28T05:29:51.750Z,95835.81
2022-07-28T05:34:53.523Z,95828.13
2022-07-28T05:39:55.248Z,95832.34
2022-07-28T05:44:57.072Z,95837.31
2022-07-28T05:50:02.229Z,95845.03
2022-07-28T05:55:05.249Z,95836.13
2022-07-28T06:00:19.674Z,95843.44
2022-07-28T06:05:23.733Z,95849.94
2022-07-28T06:10:48.513Z,95848.56
2022-07-28T06:15:52.774Z,95850.00
2022-07-28T06:20:54.436Z,95845.38
2022-07-28T06:25:56.157Z,95856.09
2022-07-28T06:30:57.890Z,95861.22
2022-07-28T06:35:59.471Z,95861.72
2022-07-28T06:41:01.779Z,95863.03
2022-07-28T06:46:03.847Z,95870.91
2022-07-28T06:51:05.953Z,95873.28
2022-07-28T06:56:08.578Z,95864.69
2022-07-28T07:01:16.472Z,95869.31
2022-07-28T07:06:18.698Z,95867.19
2022-07-28T07:11:24.913Z,95862.13
2022-07-28T07:21:43.161Z,95856.44
2022-07-28T07:26:44.804Z,95857.84
2022-07-28T07:31:46.604Z,95855.22
2022-07-28T07:36:54.425Z,95839.88
2022-07-28T07:41:56.289Z,95844.06
2022-07-28T07:46:58.706Z,95844.19
2022-07-28T07:52:04.094Z,95839.22
2022-07-28T07:57:06.034Z,95836.22
2022-07-28T08:02:07.915Z,95838.81
2022-07-28T08:07:10.102Z,95843.22
2022-07-28T08:12:11.918Z,95843.00
2022-07-28T08:17:13.601Z,95828.88
2022-07-28T08:22:18.545Z,95834.53
2022-07-28T08:27:20.658Z,95824.69
2022-07-28T08:32:22.371Z,95824.69
2022-07-28T08:37:27.119Z,95829.56
2022-07-28T08:42:43.693Z,95835.97
2022-07-28T08:48:07.190Z,95841.47
2022-07-28T08:53:09.420Z,95831.47
2022-07-28T08:58:13.244Z,95824.84
2022-07-28T09:03:16.917Z,95828.41
2022-07-28T09:08:19.669Z,95836.31
2022-07-28T09:13:21.467Z,95825.41
2022-07-28T09:18:23.159Z,95825.88
2022-07-28T09:23:42.678Z,95817.97
2022-07-28T09:29:02.494Z,95814.03
2022-07-28T09:34:05.576Z,95816.06
2022-07-28T09:39:08.291Z,95801.25
2022-07-28T09:44:21.449Z,95803.69
2022-07-28T09:49:44.743Z,95813.25
2022-07-28T09:55:09.970Z,95803.53
2022-07-28T10:00:24.354Z,95806.53
2022-07-28T10:05:39.736Z,95792.44
2022-07-28T10:10:41.597Z,95791.56
2022-07-28T10:16:01.634Z,95790.16
2022-07-28T10:21:09.882Z,95779.84
2022-07-28T10:26:13.041Z,95777.13
2022-07-28T10:31:22.501Z,95772.38
2022-07-28T10:36:25.808Z,95777.25
2022-07-28T10:41:32.915Z,95773.25
2022-07-28T10:46:35.171Z,95769.03
2022-07-28T10:51:59.863Z,95768.09
2022-07-28T10:57:05.200Z,95766.09
2022-07-28T11:02:08.601Z,95766.16
2022-07-28T11:07:15.649Z,95761.13
2022-07-28T11:12:48.218Z,95751.22
2022-07-28T11:18:06.552Z,95747.91
2022-07-28T11:23:39.465Z,95743.34
2022-07-28T11:29:03.880Z,95742.09
2022-07-28T11:34:07.050Z,95732.16
2022-07-28T11:39:25.547Z,95738.00
2022-07-28T11:44:31.003Z,95731.34
2022-07-28T11:49:33.344Z,95745.91
2022-07-28T11:54:36.677Z,95739.50
2022-07-28T11:59:58.293Z,95728.97
2022-07-28T12:05:08.540Z,95724.63
2022-07-28T12:15:53.023Z,95723.59
2022-07-28T12:20:55.497Z,95719.22
2022-07-28T12:25:57.705Z,95723.28
2022-07-28T12:31:15.694Z,95710.72
2022-07-28T12:36:19.453Z,95712.41
2022-07-28T12:41:22.472Z,95701.44
2022-07-28T12:46:28.955Z,95706.84
2022-07-28T12:51:43.029Z,95693.25
2022-07-28T12:56:52.435Z,95694.00
2022-07-28T13:01:56.118Z,95691.94
2022-07-28T13:06:57.752Z,95684.00
2022-07-28T13:12:00.509Z,95678.53
2022-07-28T13:17:02.236Z,95679.44
2022-07-28T13:22:08.813Z,95681.44
2022-07-28T13:27:11.062Z,95671.41
2022-07-28T13:32:12.826Z,95662.13
2022-07-28T13:37:15.365Z,95660.75
2022-07-28T13:42:18.581Z,95667.50
2022-07-28T13:47:20.252Z,95666.06
2022-07-28T13:52:32.732Z,95667.44
2022-07-28T13:57:36.978Z,95649.59
2022-07-28T14:02:38.932Z,95646.22
2022-07-28T14:07:48.813Z,95642.00
2022-07-28T14:12:51.025Z,95652.84
2022-07-28T14:17:53.441Z,95649.06
2022-07-28T14:22:55.171Z,95643.38
2022-07-28T14:27:57.572Z,95634.47
2022-07-28T14:32:59.262Z,95638.03
2022-07-28T14:38:50.236Z,95638.22
2022-07-28T14:43:22.827Z,95632.28
2022-07-28T14:48:24.518Z,95636.38
2022-07-28T14:53:27.665Z,95625.94
2022-07-28T14:58:29.920Z,95623.41
2022-07-28T15:03:36.374Z,95618.38
2022-07-28T15:08:38.385Z,95616.78
2022-07-28T15:13:39.996Z,95615.63
2022-07-28T15:18:41.765Z,95607.94
2022-07-28T15:23:44.112Z,95612.50
2022-07-28T15:28:48.483Z,95607.88
2022-07-28T15:33:54.045Z,95607.03
2022-07-28T15:38:59.733Z,95609.75
2022-07-28T15:44:01.705Z,95603.28
2022-07-28T15:49:09.424Z,95608.78
2022-07-28T15:54:11.270Z,95605.22
2022-07-28T15:59:13.127Z,95593.38
2022-07-28T16:04:15.057Z,95586.63
2022-07-28T16:09:17.277Z,95583.28
2022-07-28T16:14:19.341Z,95584.28
2022-07-28T16:19:46.634Z,95588.41
2022-07-28T16:24:43.160Z,95581.88
2022-07-28T16:29:44.895Z,95573.41
2022-07-28T16:34:48.171Z,95575.78
2022-07-28T16:39:49.891Z,95575.88
2022-07-28T16:44:51.526Z,95570.44
2022-07-28T16:49:53.499Z,95576.84
2022-07-28T16:54:56.079Z,95563.25
2022-07-28T16:59:57.741Z,95569.38
2022-07-28T17:04:59.593Z,95572.84
2022-07-28T17:10:01.552Z,95579.19
2022-07-28T17:15:04.337Z,95581.03
2022-07-28T17:20:07.128Z,95591.72
2022-07-28T17:25:22.680Z,95597.25
2022-07-28T17:30:33.183Z,95590.78
2022-07-28T17:35:35.964Z,95593.28
2022-07-28T17:40:40.004Z,95597.06
2022-07-28T17:45:41.800Z,95592.75
2022-07-28T17:50:44.337Z,95603.94
2022-07-28T17:56:00.424Z,95606.00
2022-07-28T18:01:09.290Z,95594.06
2022-07-28T18:06:12.455Z,95598.56
2022-07-28T18:11:14.078Z,95599.31
2022-07-28T18:16:15.857Z,95604.25
2022-07-28T18:21:17.504Z,95606.41
2022-07-28T18:26:19.219Z,95610.88
2022-07-28T18:31:21.782Z,95613.50
2022-07-28T18:36:23.839Z,95609.94
2022-07-28T18:41:25.464Z,95616.91
2022-07-28T18:46:27.217Z,95621.22
2022-07-28T18:51:29.181Z,95624.25
2022-07-28T18:56:30.990Z,95624.41
2022-07-28T19:01:33.089Z,95626.13
2022-07-28T19:06:36.180Z,95636.50
2022-07-28T19:11:41.202Z,95642.19
2022-07-28T19:16:45.551Z,95651.72
2022-07-28T19:21:47.311Z,95663.31
2022-07-28T19:26:51.180Z,95656.41
2022-07-28T19:31:52.989Z,95648.81
2022-07-28T19:36:54.877Z,95659.03
2022-07-28T19:41:56.457Z,95654.50
2022-07-28T19:46:59.444Z,95657.53
2022-07-28T19:52:01.277Z,95661.63
2022-07-28T19:57:03.176Z,95655.00
2022-07-28T20:02:14.340Z,95651.44
2022-07-28T20:07:16.132Z,95652.69
2022-07-28T20:12:18.032Z,95657.50
2022-07-28T20:17:37.508Z,95670.00
2022-07-28T20:22:41.623Z,95684.50
2022-07-28T20:27:44.341Z,95677.31
2022-07-28T20:32:46.729Z,95680.06
2022-07-28T20:37:49.419Z,95685.63
2022-07-28T20:42:53.516Z,95693.97
2022-07-28T20:47:55.169Z,95689.06
2022-07-28T20:52:56.767Z,95690.78
2022-07-28T20:57:58.367Z,95691.47
2022-07-28T21:03:00.218Z,95704.66
2022-07-28T21:08:04.793Z,95708.38
2022-07-28T21:13:08.406Z,95709.34
2022-07-28T21:18:10.778Z,95715.38
2022-07-28T21:23:12.497Z,95718.16
2022-07-28T21:28:32.921Z,95715.78
2022-07-28T21:33:34.615Z,95720.78
2022-07-28T21:38:36.305Z,95721.22
2022-07-28T21:43:38.187Z,95721.19
2022-07-28T21:48:39.956Z,95735.59
2022-07-28T21:53:44.920Z,95752.31
2022-07-28T21:58:47.593Z,95744.16
2022-07-28T22:03:50.261Z,95751.72
2022-07-28T22:08:54.074Z,95760.34
2022-07-28T22:13:55.859Z,95765.38
2022-07-28T22:18:57.551Z,95768.38
2022-07-28T22:23:59.362Z,95764.25
2022-07-28T22:29:01.029Z,95780.75
2022-07-28T22:34:02.784Z,95772.59
2022-07-28T22:39:04.871Z,95770.00
2022-07-28T22:44:09.504Z,95774.28
2022-07-28T22:49:11.177Z,95776.50
2022-07-28T22:54:13.404Z,95771.09
2022-07-28T22:59:17.740Z,95787.34
2022-07-28T23:04:19.881Z,95779.13
2022-07-28T23:09:24.767Z,95782.16
2022-07-28T23:14:26.415Z,95779.81
2022-07-28T23:19:28.211Z,95776.75
2022-07-28T23:24:30.362Z,95772.41
2022-07-28T23:29:32.017Z,95762.19
2022-07-28T23:34:33.672Z,95759.88
2022-07-28T23:39:35.280Z,95746.88
2022-07-28T23:44:36.877Z,95745.84
2022-07-28T23:49:38.597Z,95737.97
2022-07-28T23:54:40.193Z,95729.75
2022-07-28T23:59:41.927Z,95729.22
